This is the latest recevied weather packets stored in our database for station/object F5MAP-5. If no packets are shown the sender has not sent any weather packets the latest 10 day(s).
| Time | Temp. | Humidity | Pressure | Rain* | Wind** | Luminosity | Snow |
|---|---|---|---|---|---|---|---|
| 1777637546 | 24.44° C | 28% | 1024.1 hPa | 0 mm | - | 800 W/m² | - |
| 1777636948 | 23.89° C | 27% | 1024.2 hPa | 0 mm | - | 809 W/m² | - |
| 1777636346 | 23.89° C | 26% | 1024.3 hPa | 0 mm | - | 812 W/m² | - |
| 1777635746 | 23.33° C | 26% | 1024.4 hPa | 0 mm | - | 814 W/m² | - |
| 1777635146 | 23.33° C | 27% | 1024.6 hPa | 0 mm | - | 819 W/m² | - |
| 1777634546 | 22.78° C | 29% | 1024.6 hPa | 0 mm | - | 817 W/m² | - |
| 1777633946 | 22.78° C | 28% | 1024.7 hPa | 0 mm | - | 814 W/m² | - |
| 1777633346 | 21.67° C | 29% | 1024.8 hPa | 0 mm | - | 810 W/m² | - |
| 1777632746 | 21.67° C | 29% | 1025 hPa | 0 mm | - | 807 W/m² | - |
| 1777632145 | 20.56° C | 29% | 1025.2 hPa | 0 mm | - | 803 W/m² | - |
| 1777631545 | 20.56° C | 29% | 1025.2 hPa | 0 mm | - | 798 W/m² | - |
| 1777630945 | 19.44° C | 29% | 1025.3 hPa | 0 mm | - | 789 W/m² | - |
| 1777630345 | 19.44° C | 31% | 1025.4 hPa | 0 mm | - | 780 W/m² | - |
| 1777629745 | 18.89° C | 31% | 1025.4 hPa | 0 mm | - | 770 W/m² | - |
| 1777629145 | 18.33° C | 33% | 1025.5 hPa | 0 mm | - | 761 W/m² | - |
| 1777628545 | 18.33° C | 33% | 1025.6 hPa | 0 mm | - | 747 W/m² | - |
| 1777627945 | 17.78° C | 32% | 1025.6 hPa | 0 mm | - | 731 W/m² | - |
| 1777627345 | 17.22° C | 32% | 1025.6 hPa | 0 mm | - | 722 W/m² | - |
| 1777626745 | 16.67° C | 33% | 1025.6 hPa | 0 mm | - | 701 W/m² | - |
| 1777626145 | 16.67° C | 33% | 1025.5 hPa | 0 mm | - | 684 W/m² | - |
| 1777625544 | 16.11° C | 34% | 1025.5 hPa | 0 mm | - | 666 W/m² | - |
| 1777624944 | 15.56° C | 35% | 1025.5 hPa | 0 mm | - | 652 W/m² | - |
| 1777624344 | 15.56° C | 36% | 1025.6 hPa | 0 mm | - | 629 W/m² | - |
| 1777623744 | 15° C | 36% | 1025.5 hPa | 0 mm | - | 610 W/m² | - |
| 1777623144 | 14.44° C | 39% | 1025.5 hPa | 0 mm | - | 591 W/m² | - |
* Rain latest hour (hover to see other rain measurements)
** Current wind speed in m/s (hover to see current wind gust speed)